createdAt,value
2018-08-27T00:00:18.308Z,99384.78
2018-08-27T00:02:47.630Z,99387.27
2018-08-27T00:05:17.298Z,99388.09
2018-08-27T00:07:46.502Z,99386.49
2018-08-27T00:10:15.442Z,99390.06
2018-08-27T00:12:44.567Z,99381.89
2018-08-27T00:15:13.590Z,99379.45
2018-08-27T00:17:42.643Z,99381.09
2018-08-27T00:20:11.755Z,99378.09
2018-08-27T00:22:41.971Z,99370.46
2018-08-27T00:25:11.058Z,99370.73
2018-08-27T00:27:40.052Z,99370.20
2018-08-27T00:30:09.374Z,99375.36
2018-08-27T00:32:38.442Z,99374.28
2018-08-27T00:35:07.840Z,99371.03
2018-08-27T00:37:37.274Z,99369.11
2018-08-27T00:40:06.368Z,99356.34
2018-08-27T00:42:36.107Z,99362.61
2018-08-27T00:45:05.379Z,99363.98
2018-08-27T00:47:34.335Z,99367.78
2018-08-27T00:50:03.410Z,99360.69
2018-08-27T00:52:33.071Z,99356.33
2018-08-27T00:55:02.462Z,99357.44
2018-08-27T00:57:31.861Z,99359.05
2018-08-27T01:00:01.085Z,99359.61
2018-08-27T01:02:30.230Z,99358.23
2018-08-27T01:04:59.353Z,99356.89
2018-08-27T01:07:28.642Z,99354.45
2018-08-27T01:09:57.796Z,99354.46
2018-08-27T01:12:26.784Z,99354.46
2018-08-27T01:14:55.895Z,99348.75
2018-08-27T01:17:25.206Z,99348.20
2018-08-27T01:19:54.098Z,99344.66
2018-08-27T01:22:23.084Z,99350.41
2018-08-27T01:24:52.584Z,99352.05
2018-08-27T01:27:22.506Z,99352.03
2018-08-27T01:29:51.669Z,99352.30
2018-08-27T01:32:25.537Z,99350.97
2018-08-27T01:34:55.566Z,99349.05
2018-08-27T01:37:25.438Z,99354.78
2018-08-27T01:39:55.642Z,99356.69
2018-08-27T01:42:25.591Z,99361.59
2018-08-27T01:44:54.763Z,99364.56
2018-08-27T01:47:24.045Z,99361.30
2018-08-27T01:49:53.060Z,99367.58
2018-08-27T01:52:22.251Z,99368.66
2018-08-27T01:54:51.528Z,99371.11
2018-08-27T01:57:20.555Z,99368.66
2018-08-27T01:59:50.370Z,99373.84
2018-08-27T02:02:20.563Z,99374.37
2018-08-27T02:04:49.859Z,99374.11
2018-08-27T02:07:19.214Z,99378.20
2018-08-27T02:09:48.404Z,99379.30
2018-08-27T02:12:17.793Z,99385.55
2018-08-27T02:14:47.173Z,99381.73
2018-08-27T02:17:16.400Z,99380.11
2018-08-27T02:19:45.894Z,99385.55
2018-08-27T02:22:15.141Z,99383.37
2018-08-27T02:24:44.122Z,99391.26
2018-08-27T02:27:15.167Z,99378.73
2018-08-27T02:29:44.290Z,99379.28
2018-08-27T02:32:13.288Z,99380.91
2018-08-27T02:34:42.846Z,99387.17
2018-08-27T02:37:11.826Z,99384.98
2018-08-27T02:39:41.454Z,99386.92
2018-08-27T02:42:10.806Z,99378.19
2018-08-27T02:44:40.050Z,99381.99
2018-08-27T02:47:09.304Z,99391.55
2018-08-27T02:49:38.386Z,99391.25
2018-08-27T02:52:07.691Z,99391.00
2018-08-27T02:54:36.960Z,99393.45
2018-08-27T02:57:06.897Z,99392.64
2018-08-27T02:59:36.547Z,99395.34
2018-08-27T03:02:06.174Z,99400.53
2018-08-27T03:04:35.252Z,99396.16
2018-08-27T03:07:04.613Z,99398.34
2018-08-27T03:09:33.620Z,99402.69
2018-08-27T03:12:03.585Z,99404.34
2018-08-27T03:14:32.630Z,99399.69
2018-08-27T03:17:01.724Z,99398.61
2018-08-27T03:19:31.299Z,99394.52
2018-08-27T03:22:01.285Z,99393.16
2018-08-27T03:24:30.447Z,99398.59
2018-08-27T03:26:59.903Z,99399.42
2018-08-27T03:29:29.663Z,99386.92
2018-08-27T03:31:58.814Z,99403.51
2018-08-27T03:34:28.619Z,99403.23
2018-08-27T03:36:57.822Z,99403.49
2018-08-27T03:39:26.868Z,99407.30
2018-08-27T03:41:55.898Z,99404.31
2018-08-27T03:44:24.921Z,99410.30
2018-08-27T03:46:53.948Z,99404.80
2018-08-27T03:49:22.996Z,99406.98
2018-08-27T03:51:52.082Z,99409.42
2018-08-27T03:54:21.236Z,99411.86
2018-08-27T03:56:50.130Z,99407.52
2018-08-27T03:59:19.463Z,99410.78
2018-08-27T04:01:48.736Z,99405.88
2018-08-27T04:04:17.916Z,99408.86
2018-08-27T04:06:48.829Z,99416.20
2018-08-27T04:09:18.010Z,99410.23
2018-08-27T04:11:46.857Z,99410.23
2018-08-27T04:14:16.029Z,99415.13
2018-08-27T04:16:45.478Z,99415.11
2018-08-27T04:19:15.145Z,99416.47
2018-08-27T04:21:44.306Z,99420.02
2018-08-27T04:24:13.313Z,99415.36
2018-08-27T04:26:42.378Z,99425.42
2018-08-27T04:29:11.911Z,99418.34
2018-08-27T04:31:41.342Z,99422.14
2018-08-27T04:34:10.429Z,99424.86
2018-08-27T04:36:40.446Z,99422.40
2018-08-27T04:39:10.740Z,99428.09
2018-08-27T04:41:39.798Z,99427.55
2018-08-27T04:44:09.204Z,99430.81
2018-08-27T04:46:39.238Z,99429.45
2018-08-27T04:49:08.431Z,99429.17
2018-08-27T04:51:37.647Z,99435.46
2018-08-27T04:54:07.676Z,99428.66
2018-08-27T04:56:36.900Z,99429.20
2018-08-27T04:59:11.096Z,99433.28
2018-08-27T05:01:40.827Z,99440.62
2018-08-27T05:04:09.925Z,99442.27
2018-08-27T05:06:39.352Z,99440.62
2018-08-27T05:09:10.122Z,99441.19
2018-08-27T05:11:40.101Z,99446.34
2018-08-27T05:14:10.736Z,99439.54
2018-08-27T05:16:39.850Z,99449.59
2018-08-27T05:19:10.382Z,99446.88
2018-08-27T05:21:39.458Z,99447.95
2018-08-27T05:24:09.083Z,99448.23
2018-08-27T05:26:38.182Z,99452.57
2018-08-27T05:29:07.769Z,99453.93
2018-08-27T05:31:36.952Z,99455.29
2018-08-27T05:34:06.268Z,99457.47
2018-08-27T05:36:35.314Z,99460.19
2018-08-27T05:39:05.103Z,99453.96
2018-08-27T05:41:34.062Z,99451.24
2018-08-27T05:44:03.303Z,99448.80
2018-08-27T05:46:32.420Z,99456.71
2018-08-27T05:49:01.760Z,99457.53
2018-08-27T05:51:30.943Z,99451.86
2018-08-27T05:54:00.093Z,99449.42
2018-08-27T05:56:29.627Z,99449.98
2018-08-27T05:58:58.683Z,99455.48
2018-08-27T06:01:28.055Z,99453.31
2018-08-27T06:03:57.296Z,99443.80
2018-08-27T06:06:26.599Z,99453.06
2018-08-27T06:08:55.719Z,99454.72
2018-08-27T06:11:25.169Z,99453.91
2018-08-27T06:13:54.314Z,99449.84
2018-08-27T06:16:23.467Z,99446.84
2018-08-27T06:18:52.646Z,99445.47
2018-08-27T06:21:22.250Z,99448.20
2018-08-27T06:23:51.279Z,99449.28
2018-08-27T06:26:20.245Z,99452.82
2018-08-27T06:28:49.426Z,99446.02
2018-08-27T06:31:18.400Z,99442.19
2018-08-27T06:33:47.673Z,99446.28
2018-08-27T06:36:17.081Z,99447.36
2018-08-27T06:38:46.331Z,99446.30
2018-08-27T06:41:15.937Z,99444.66
2018-08-27T06:43:44.950Z,99440.85
2018-08-27T06:46:14.227Z,99441.66
2018-08-27T06:48:43.941Z,99435.92
2018-08-27T06:51:13.375Z,99440.00
2018-08-27T06:53:42.368Z,99442.70
2018-08-27T06:56:11.589Z,99438.88
2018-08-27T06:58:40.887Z,99434.47
2018-08-27T07:01:09.967Z,99436.66
2018-08-27T07:03:39.375Z,99438.00
2018-08-27T07:06:08.771Z,99433.61
2018-08-27T07:08:37.793Z,99436.33
2018-08-27T07:11:07.525Z,99441.20
2018-08-27T07:13:36.758Z,99437.64
2018-08-27T07:16:06.460Z,99442.55
2018-08-27T07:18:35.710Z,99445.23
2018-08-27T07:21:04.742Z,99442.77
2018-08-27T07:23:33.982Z,99446.86
2018-08-27T07:26:03.196Z,99444.95
2018-08-27T07:28:32.419Z,99443.58
2018-08-27T07:31:07.951Z,99441.06
2018-08-27T07:33:37.069Z,99436.71
2018-08-27T07:36:06.378Z,99441.31
2018-08-27T07:38:35.773Z,99437.16
2018-08-27T07:41:04.948Z,99435.50
2018-08-27T07:43:34.378Z,99439.55
2018-08-27T07:46:03.603Z,99442.25
2018-08-27T07:48:32.775Z,99443.59
2018-08-27T07:51:07.063Z,99439.75
2018-08-27T07:53:36.419Z,99439.96
2018-08-27T07:56:05.801Z,99443.48
2018-08-27T07:58:35.168Z,99444.31
2018-08-27T08:01:04.403Z,99450.56
2018-08-27T08:03:33.627Z,99441.00
2018-08-27T08:06:02.667Z,99444.31
2018-08-27T08:08:32.304Z,99442.37
2018-08-27T08:11:01.550Z,99443.67
2018-08-27T08:13:30.679Z,99447.77
2018-08-27T08:16:00.108Z,99455.39
2018-08-27T08:18:29.639Z,99449.08
2018-08-27T08:20:59.193Z,99457.28
2018-08-27T08:23:29.006Z,99456.97
2018-08-27T08:25:58.407Z,99449.56
2018-08-27T08:28:27.553Z,99448.95
2018-08-27T08:30:56.607Z,99446.77
2018-08-27T08:33:25.999Z,99455.23
2018-08-27T08:35:55.130Z,99457.36
2018-08-27T08:38:24.533Z,99452.63
2018-08-27T08:41:00.381Z,99458.58
2018-08-27T08:43:29.385Z,99460.45
2018-08-27T08:45:58.976Z,99461.00
2018-08-27T08:48:28.387Z,99462.33
2018-08-27T08:50:57.613Z,99473.23
2018-08-27T08:53:27.014Z,99468.51
2018-08-27T08:55:56.245Z,99461.86
2018-08-27T08:58:26.870Z,99462.05
2018-08-27T09:00:56.301Z,99464.20
2018-08-27T09:03:25.799Z,99450.80
2018-08-27T09:05:55.204Z,99449.93
2018-08-27T09:08:24.208Z,99451.76
2018-08-27T09:10:53.283Z,99448.97
2018-08-27T09:13:22.364Z,99439.90
2018-08-27T09:15:51.654Z,99449.48
2018-08-27T09:18:24.651Z,99447.78
2018-08-27T09:20:53.774Z,99448.81
2018-08-27T09:23:23.290Z,99449.54
2018-08-27T09:25:53.312Z,99442.55
2018-08-27T09:28:22.488Z,99431.75
2018-08-27T09:30:51.685Z,99435.20
2018-08-27T09:33:20.845Z,99436.70
2018-08-27T09:35:50.191Z,99430.07
2018-08-27T09:38:19.490Z,99437.08
2018-08-27T09:40:48.546Z,99434.53
2018-08-27T09:43:18.767Z,99429.22
2018-08-27T09:45:47.959Z,99429.15
2018-08-27T09:48:17.067Z,99427.63
2018-08-27T09:50:46.167Z,99429.70
2018-08-27T09:53:15.346Z,99434.02
2018-08-27T09:55:44.864Z,99420.87
2018-08-27T09:58:14.003Z,99425.14
2018-08-27T10:00:48.169Z,99432.45
2018-08-27T10:03:17.518Z,99426.59
2018-08-27T10:05:46.717Z,99421.84
2018-08-27T10:08:16.253Z,99423.08
2018-08-27T10:10:45.292Z,99416.02
2018-08-27T10:13:14.378Z,99413.34
2018-08-27T10:15:43.675Z,99418.39
2018-08-27T10:18:12.921Z,99417.28
2018-08-27T10:20:42.201Z,99407.94
2018-08-27T10:23:11.269Z,99413.07
2018-08-27T10:25:40.393Z,99411.88
2018-08-27T10:28:09.595Z,99409.27
2018-08-27T10:30:38.907Z,99407.24
2018-08-27T10:33:08.024Z,99403.12
2018-08-27T10:35:37.238Z,99404.70
2018-08-27T10:38:06.496Z,99403.55
2018-08-27T10:40:35.883Z,99404.02
2018-08-27T10:43:05.157Z,99394.50
2018-08-27T10:45:34.581Z,99397.08
2018-08-27T10:48:03.729Z,99398.84
2018-08-27T10:50:33.904Z,99404.17
2018-08-27T10:53:03.598Z,99391.37
2018-08-27T10:55:33.573Z,99397.52
2018-08-27T10:58:02.659Z,99388.12
2018-08-27T11:00:31.664Z,99385.27
2018-08-27T11:03:03.113Z,99383.41
2018-08-27T11:05:32.435Z,99384.53
2018-08-27T11:08:02.234Z,99386.83
2018-08-27T11:10:31.393Z,99374.72
2018-08-27T11:13:00.666Z,99375.77
2018-08-27T11:15:29.810Z,99375.91
2018-08-27T11:17:59.129Z,99376.53
2018-08-27T11:20:28.466Z,99368.64
2018-08-27T11:22:57.510Z,99381.69
2018-08-27T11:25:26.604Z,99374.69
2018-08-27T11:27:55.884Z,99380.06
2018-08-27T11:30:25.669Z,99372.50
2018-08-27T11:32:54.994Z,99370.48
2018-08-27T11:35:24.617Z,99367.35
2018-08-27T11:37:53.668Z,99371.09
2018-08-27T11:40:22.944Z,99368.78
2018-08-27T11:42:52.247Z,99365.51
2018-08-27T11:45:21.487Z,99366.50
2018-08-27T11:47:50.746Z,99361.78
2018-08-27T11:50:20.067Z,99356.14
2018-08-27T11:52:49.318Z,99358.59
2018-08-27T11:55:19.020Z,99353.68
2018-08-27T11:57:48.210Z,99348.52
2018-08-27T12:00:22.622Z,99346.37
2018-08-27T12:02:52.035Z,99343.00
2018-08-27T12:05:21.332Z,99345.25
2018-08-27T12:07:50.456Z,99336.81
2018-08-27T12:10:19.607Z,99334.97
2018-08-27T12:12:52.581Z,99336.94
2018-08-27T12:15:21.815Z,99332.09
2018-08-27T12:17:51.376Z,99322.66
2018-08-27T12:20:20.635Z,99325.17
2018-08-27T12:22:49.805Z,99311.98
2018-08-27T12:25:18.852Z,99316.26
2018-08-27T12:27:47.898Z,99320.97
2018-08-27T12:30:17.336Z,99325.42
2018-08-27T12:32:46.575Z,99318.94
2018-08-27T12:35:15.856Z,99322.11
2018-08-27T12:37:45.003Z,99316.28
2018-08-27T12:40:14.275Z,99315.78
2018-08-27T12:42:43.493Z,99306.63
2018-08-27T12:45:12.759Z,99309.77
2018-08-27T12:47:42.100Z,99311.23
2018-08-27T12:50:11.242Z,99311.39
2018-08-27T12:52:40.271Z,99307.84
2018-08-27T12:55:09.716Z,99303.92
2018-08-27T12:57:39.386Z,99311.38
2018-08-27T13:00:12.679Z,99305.17
2018-08-27T13:02:41.963Z,99302.61
2018-08-27T13:05:11.298Z,99304.36
2018-08-27T13:07:41.863Z,99304.02
2018-08-27T13:10:11.180Z,99304.62
2018-08-27T13:12:40.555Z,99299.18
2018-08-27T13:15:10.265Z,99299.95
2018-08-27T13:17:39.370Z,99296.48
2018-08-27T13:20:08.393Z,99299.67
2018-08-27T13:22:37.497Z,99290.19
2018-08-27T13:25:06.501Z,99294.25
2018-08-27T13:27:35.885Z,99293.97
2018-08-27T13:30:05.231Z,99294.46
2018-08-27T13:32:34.710Z,99299.80
2018-08-27T13:35:04.973Z,99289.27
2018-08-27T13:37:34.107Z,99295.06
2018-08-27T13:40:03.473Z,99289.44
2018-08-27T13:42:32.887Z,99290.36
2018-08-27T13:45:02.137Z,99291.38
2018-08-27T13:47:31.166Z,99293.53
2018-08-27T13:50:00.324Z,99280.98
2018-08-27T13:52:29.426Z,99282.98
2018-08-27T13:54:58.717Z,99282.77
2018-08-27T13:57:27.673Z,99289.38
2018-08-27T13:59:57.189Z,99276.98
2018-08-27T14:02:26.443Z,99280.09
2018-08-27T14:04:55.597Z,99279.56
2018-08-27T14:07:24.588Z,99281.77
2018-08-27T14:09:53.675Z,99287.56
2018-08-27T14:12:22.798Z,99280.66
2018-08-27T14:14:52.378Z,99275.61
2018-08-27T14:17:21.664Z,99276.42
2018-08-27T14:19:50.933Z,99256.20
2018-08-27T14:22:20.390Z,99268.93
2018-08-27T14:24:49.605Z,99255.31
2018-08-27T14:27:19.380Z,99263.40
2018-08-27T14:29:49.083Z,99266.70
2018-08-27T14:32:18.327Z,99262.09
2018-08-27T14:34:47.342Z,99267.51
2018-08-27T14:37:16.395Z,99268.08
2018-08-27T14:39:45.618Z,99262.22
2018-08-27T14:42:14.721Z,99259.90
2018-08-27T14:44:44.121Z,99260.47
2018-08-27T14:47:13.144Z,99266.25
2018-08-27T14:49:42.396Z,99269.41
2018-08-27T14:52:11.361Z,99260.09
2018-08-27T14:54:40.360Z,99261.36
2018-08-27T14:57:09.304Z,99263.69
2018-08-27T14:59:38.811Z,99257.70
2018-08-27T15:02:07.855Z,99258.06
2018-08-27T15:04:37.383Z,99261.77
2018-08-27T15:07:06.973Z,99261.19
2018-08-27T15:09:36.337Z,99264.41
2018-08-27T15:12:05.885Z,99259.81
2018-08-27T15:14:41.423Z,99258.21
2018-08-27T15:17:11.070Z,99267.45
2018-08-27T15:19:40.590Z,99265.12
2018-08-27T15:22:09.877Z,99260.16
2018-08-27T15:24:39.139Z,99254.86
2018-08-27T15:27:08.335Z,99258.34
2018-08-27T15:29:37.646Z,99250.78
2018-08-27T15:32:06.939Z,99252.39
2018-08-27T15:34:35.887Z,99251.23
2018-08-27T15:37:05.078Z,99248.20
2018-08-27T15:39:34.194Z,99245.10
2018-08-27T15:42:03.727Z,99232.88
2018-08-27T15:44:32.776Z,99237.27
2018-08-27T15:47:02.012Z,99235.62
2018-08-27T15:49:31.439Z,99239.42
2018-08-27T15:52:00.829Z,99236.66
2018-08-27T15:54:30.134Z,99230.16
2018-08-27T15:57:01.419Z,99240.90
2018-08-27T15:59:28.539Z,99228.42
2018-08-27T16:01:57.435Z,99224.95
2018-08-27T16:04:26.545Z,99230.39
2018-08-27T16:06:55.764Z,99231.78
2018-08-27T16:09:24.907Z,99229.11
2018-08-27T16:11:54.556Z,99224.27
2018-08-27T16:14:23.787Z,99223.59
2018-08-27T16:16:52.804Z,99222.78
2018-08-27T16:19:21.868Z,99214.57
2018-08-27T16:21:51.348Z,99212.95
2018-08-27T16:24:20.504Z,99216.44
2018-08-27T16:26:49.918Z,99220.83
2018-08-27T16:29:19.129Z,99212.72
2018-08-27T16:31:48.231Z,99215.72
2018-08-27T16:34:17.216Z,99215.48
2018-08-27T16:36:46.616Z,99209.13
2018-08-27T16:39:15.888Z,99207.04
2018-08-27T16:41:45.138Z,99209.23
2018-08-27T16:44:14.320Z,99212.27
2018-08-27T16:46:43.442Z,99215.05
2018-08-27T16:49:12.746Z,99215.86
2018-08-27T16:51:41.699Z,99211.13
2018-08-27T16:54:11.331Z,99210.18
2018-08-27T16:56:40.672Z,99212.72
2018-08-27T16:59:10.081Z,99211.06
2018-08-27T17:01:39.361Z,99208.72
2018-08-27T17:04:09.290Z,99206.72
2018-08-27T17:06:38.461Z,99211.60
2018-08-27T17:09:07.667Z,99207.59
2018-08-27T17:11:36.727Z,99208.44
2018-08-27T17:14:06.310Z,99195.98
2018-08-27T17:16:35.737Z,99212.15
2018-08-27T17:19:04.842Z,99214.32
2018-08-27T17:21:33.827Z,99215.63
2018-08-27T17:24:02.970Z,99216.34
2018-08-27T17:26:32.481Z,99214.02
2018-08-27T17:29:01.646Z,99217.02
2018-08-27T17:31:30.954Z,99225.31
2018-08-27T17:34:00.201Z,99225.81
2018-08-27T17:36:29.365Z,99226.95
2018-08-27T17:38:58.537Z,99230.57
2018-08-27T17:41:27.635Z,99240.67
2018-08-27T17:43:57.120Z,99245.44
2018-08-27T17:46:26.290Z,99245.56
2018-08-27T17:48:55.632Z,99252.02
2018-08-27T17:51:24.869Z,99251.53
2018-08-27T17:53:54.347Z,99254.94
2018-08-27T17:56:23.568Z,99256.28
2018-08-27T17:58:53.080Z,99262.21
2018-08-27T18:01:22.626Z,99257.31
2018-08-27T18:03:51.904Z,99261.84
2018-08-27T18:06:21.187Z,99257.62
2018-08-27T18:08:53.458Z,99257.06
2018-08-27T18:11:22.533Z,99268.95
2018-08-27T18:13:52.034Z,99268.37
2018-08-27T18:16:21.586Z,99268.30
2018-08-27T18:18:50.944Z,99272.80
2018-08-27T18:21:21.209Z,99268.77
2018-08-27T18:23:50.288Z,99275.48
2018-08-27T18:26:19.712Z,99270.09
2018-08-27T18:28:49.840Z,99268.59
2018-08-27T18:31:19.043Z,99273.88
2018-08-27T18:33:48.875Z,99273.11
2018-08-27T18:36:18.191Z,99274.81
2018-08-27T18:38:47.286Z,99273.44
2018-08-27T18:41:16.634Z,99272.32
2018-08-27T18:43:47.065Z,99276.70
2018-08-27T18:46:17.300Z,99276.62
2018-08-27T18:48:46.675Z,99272.52
2018-08-27T18:51:15.738Z,99277.92
2018-08-27T18:53:45.193Z,99277.61
2018-08-27T18:56:14.356Z,99285.80
2018-08-27T18:58:43.624Z,99290.98
2018-08-27T19:01:12.939Z,99293.33
2018-08-27T19:03:42.677Z,99294.03
2018-08-27T19:06:12.175Z,99300.25
2018-08-27T19:08:41.573Z,99298.20
2018-08-27T19:11:11.113Z,99302.51
2018-08-27T19:13:40.558Z,99305.66
2018-08-27T19:16:10.141Z,99307.42
2018-08-27T19:18:40.450Z,99310.23
2018-08-27T19:21:10.078Z,99314.45
2018-08-27T19:23:39.421Z,99317.28
2018-08-27T19:26:08.976Z,99316.78
2018-08-27T19:28:39.044Z,99320.09
2018-08-27T19:31:08.492Z,99320.99
2018-08-27T19:33:37.991Z,99309.95
2018-08-27T19:36:07.353Z,99319.75
2018-08-27T19:38:36.849Z,99322.02
2018-08-27T19:41:06.221Z,99329.04
2018-08-27T19:43:35.557Z,99328.30
2018-08-27T19:46:04.981Z,99324.56
2018-08-27T19:48:33.965Z,99329.08
2018-08-27T19:51:06.408Z,99327.27
2018-08-27T19:53:35.742Z,99328.17
2018-08-27T19:56:04.975Z,99335.09
2018-08-27T19:58:34.296Z,99333.59
2018-08-27T20:01:03.468Z,99336.24
2018-08-27T20:03:33.043Z,99340.75
2018-08-27T20:06:02.903Z,99339.20
2018-08-27T20:08:34.471Z,99341.99
2018-08-27T20:11:04.106Z,99345.37
2018-08-27T20:13:35.948Z,99342.14
2018-08-27T20:16:07.396Z,99340.52
2018-08-27T20:18:42.980Z,99340.33
2018-08-27T20:21:12.383Z,99340.41
2018-08-27T20:23:41.723Z,99346.52
2018-08-27T20:26:11.200Z,99350.16
2018-08-27T20:28:40.512Z,99344.39
2018-08-27T20:31:09.791Z,99347.78
2018-08-27T20:33:39.487Z,99348.59
2018-08-27T20:36:08.735Z,99342.02
2018-08-27T20:38:37.994Z,99350.27
2018-08-27T20:41:07.569Z,99344.77
2018-08-27T20:43:37.818Z,99357.96
2018-08-27T20:46:07.452Z,99348.89
2018-08-27T20:48:37.342Z,99351.64
2018-08-27T20:51:06.837Z,99353.58
2018-08-27T20:53:36.094Z,99349.45
2018-08-27T20:56:07.195Z,99354.95
2018-08-27T20:58:37.027Z,99347.03
2018-08-27T21:01:06.876Z,99358.59
2018-08-27T21:03:36.108Z,99362.72
2018-08-27T21:06:05.384Z,99358.89
2018-08-27T21:08:34.681Z,99358.67
2018-08-27T21:11:03.988Z,99360.90
2018-08-27T21:13:33.195Z,99369.45
2018-08-27T21:16:02.475Z,99364.02
2018-08-27T21:18:31.896Z,99370.41
2018-08-27T21:21:02.137Z,99376.20
2018-08-27T21:23:31.631Z,99376.77
2018-08-27T21:26:00.751Z,99381.22
2018-08-27T21:28:30.226Z,99377.39
2018-08-27T21:30:59.644Z,99376.58
2018-08-27T21:33:29.115Z,99375.53
2018-08-27T21:35:58.513Z,99377.28
2018-08-27T21:38:27.953Z,99384.25
2018-08-27T21:40:58.010Z,99390.38
2018-08-27T21:43:27.170Z,99394.28
2018-08-27T21:45:56.605Z,99388.08
2018-08-27T21:48:25.659Z,99392.33
2018-08-27T21:50:55.057Z,99382.48
2018-08-27T21:53:24.363Z,99385.63
2018-08-27T21:55:53.497Z,99390.34
2018-08-27T21:58:22.874Z,99394.53
2018-08-27T22:00:56.317Z,99396.53
2018-08-27T22:04:35.008Z,99393.33
2018-08-27T22:07:04.686Z,99402.28
2018-08-27T22:09:33.997Z,99401.53
2018-08-27T22:12:03.605Z,99394.47
2018-08-27T22:14:33.050Z,99398.39
2018-08-27T22:17:02.453Z,99395.12
2018-08-27T22:19:31.807Z,99399.86
2018-08-27T22:22:01.751Z,99405.97
2018-08-27T22:24:31.325Z,99404.13
2018-08-27T22:27:01.070Z,99402.88
2018-08-27T22:29:30.249Z,99402.70
2018-08-27T22:31:59.688Z,99403.03
2018-08-27T22:34:28.909Z,99403.91
2018-08-27T22:36:58.407Z,99400.64
2018-08-27T22:39:31.818Z,99399.87
2018-08-27T22:42:01.082Z,99404.55
2018-08-27T22:44:30.302Z,99404.05
2018-08-27T22:46:59.529Z,99406.05
2018-08-27T22:49:29.177Z,99402.77
2018-08-27T22:51:59.215Z,99404.44
2018-08-27T22:54:29.265Z,99409.16
2018-08-27T22:56:58.504Z,99405.39
2018-08-27T22:59:28.409Z,99405.73
2018-08-27T23:01:57.809Z,99406.61
2018-08-27T23:04:32.168Z,99401.97
2018-08-27T23:07:01.360Z,99393.51
2018-08-27T23:09:31.206Z,99400.05
2018-08-27T23:12:00.607Z,99400.59
2018-08-27T23:14:29.697Z,99398.47
2018-08-27T23:16:59.100Z,99396.59
2018-08-27T23:19:28.471Z,99399.63
2018-08-27T23:21:57.805Z,99397.44
2018-08-27T23:24:27.265Z,99398.31
2018-08-27T23:26:56.546Z,99400.80
2018-08-27T23:29:25.821Z,99393.73
2018-08-27T23:31:55.061Z,99401.41
2018-08-27T23:34:24.335Z,99397.29
2018-08-27T23:36:53.700Z,99397.55
2018-08-27T23:39:23.096Z,99395.05
2018-08-27T23:41:52.753Z,99402.44
2018-08-27T23:44:21.843Z,99396.95
2018-08-27T23:46:50.901Z,99403.80
2018-08-27T23:49:20.185Z,99399.16
2018-08-27T23:51:50.023Z,99400.53
2018-08-27T23:54:21.998Z,99403.59
2018-08-27T23:56:51.427Z,99408.27
2018-08-27T23:59:20.735Z,99409.13
